createdAt,value
2019-05-28T00:00:40.613Z,2.20
2019-05-28T00:01:40.644Z,1.72
2019-05-28T00:02:40.618Z,1.34
2019-05-28T00:03:40.613Z,0.85
2019-05-28T00:04:40.614Z,0.67
2019-05-28T00:05:40.610Z,0.48
2019-05-28T00:06:40.647Z,0.38
2019-05-28T00:07:40.611Z,0.67
2019-05-28T00:08:40.621Z,0.67
2019-05-28T00:09:40.621Z,0.85
2019-05-28T00:10:40.611Z,0.48
2019-05-28T00:11:40.637Z,0.00
2019-05-28T00:12:40.614Z,0.28
2019-05-28T00:13:40.614Z,0.85
2019-05-28T00:14:40.613Z,1.24
2019-05-28T00:15:40.620Z,1.14
2019-05-28T00:16:40.638Z,0.76
2019-05-28T00:17:40.618Z,0.57
2019-05-28T00:18:40.607Z,0.00
2019-05-28T00:19:40.614Z,0.00
2019-05-28T00:20:40.610Z,0.00
2019-05-28T00:21:40.645Z,0.00
2019-05-28T00:22:40.607Z,0.00
2019-05-28T00:23:40.610Z,0.00
2019-05-28T00:24:40.608Z,0.00
2019-05-28T00:25:40.606Z,0.00
2019-05-28T00:26:40.635Z,0.00
2019-05-28T00:27:40.611Z,0.00
2019-05-28T00:28:40.610Z,0.00
2019-05-28T00:29:40.601Z,0.00
2019-05-28T00:30:40.611Z,0.00
2019-05-28T00:31:40.628Z,0.00
2019-05-28T00:32:40.609Z,0.00
2019-05-28T00:33:40.668Z,0.00
2019-05-28T00:34:40.600Z,0.00
2019-05-28T00:35:40.600Z,0.00
2019-05-28T00:36:40.633Z,0.00
2019-05-28T00:37:40.601Z,0.00
2019-05-28T00:38:40.607Z,0.00
2019-05-28T00:39:40.601Z,0.00
2019-05-28T00:40:40.593Z,0.00
2019-05-28T00:41:40.625Z,0.00
2019-05-28T00:42:40.606Z,0.00
2019-05-28T00:43:40.595Z,0.00
2019-05-28T00:44:40.595Z,0.00
2019-05-28T00:45:40.600Z,0.00
2019-05-28T00:46:40.634Z,0.00
2019-05-28T00:47:40.592Z,0.00
2019-05-28T00:48:40.596Z,0.00
2019-05-28T00:49:40.596Z,0.00
2019-05-28T00:50:40.610Z,0.00
2019-05-28T00:51:40.618Z,0.00
2019-05-28T00:52:40.625Z,0.00
2019-05-28T00:53:40.590Z,0.00
2019-05-28T00:54:40.588Z,0.00
2019-05-28T00:55:40.600Z,0.00
2019-05-28T00:56:40.611Z,0.00
2019-05-28T00:57:40.621Z,0.00
2019-05-28T00:58:40.589Z,0.00
2019-05-28T00:59:40.594Z,0.00
2019-05-28T01:00:41.398Z,0.00
2019-05-28T01:01:40.590Z,0.00
2019-05-28T01:02:40.618Z,0.00
2019-05-28T01:03:40.598Z,0.00
2019-05-28T01:04:40.608Z,0.00
2019-05-28T01:05:40.586Z,0.00
2019-05-28T01:06:40.606Z,0.00
2019-05-28T01:07:40.619Z,0.00
2019-05-28T01:08:40.587Z,0.00
2019-05-28T01:09:40.590Z,0.00
2019-05-28T01:10:40.587Z,0.00
2019-05-28T01:11:40.612Z,0.00
2019-05-28T01:12:40.619Z,0.00
2019-05-28T01:13:40.581Z,0.00
2019-05-28T01:14:40.592Z,0.00
2019-05-28T01:15:40.592Z,0.00
2019-05-28T01:16:40.586Z,0.00
2019-05-28T01:17:40.613Z,0.00
2019-05-28T01:18:40.584Z,0.00
2019-05-28T01:19:40.588Z,0.00
2019-05-28T01:20:40.583Z,0.00
2019-05-28T01:21:42.513Z,0.00
2019-05-28T01:22:40.619Z,0.00
2019-05-28T01:23:40.588Z,0.00
2019-05-28T01:24:40.585Z,0.00
2019-05-28T01:25:40.582Z,0.00
2019-05-28T01:26:40.586Z,0.00
2019-05-28T01:27:40.604Z,0.00
2019-05-28T01:28:40.585Z,0.00
2019-05-28T01:29:40.582Z,0.00
2019-05-28T01:30:54.923Z,0.00
2019-05-28T01:31:40.577Z,0.00
2019-05-28T01:32:40.612Z,0.00
2019-05-28T01:33:40.575Z,0.00
2019-05-28T01:34:40.577Z,0.00
2019-05-28T01:35:40.576Z,0.00
2019-05-28T01:36:40.583Z,0.00
2019-05-28T01:37:40.600Z,0.00
2019-05-28T01:38:40.570Z,0.00
2019-05-28T01:39:40.573Z,0.00
2019-05-28T01:40:41.502Z,0.00
2019-05-28T01:41:40.573Z,0.00
2019-05-28T01:42:40.601Z,0.00
2019-05-28T01:43:40.565Z,0.00
2019-05-28T01:44:40.566Z,0.00
2019-05-28T01:45:40.568Z,0.00
2019-05-28T01:46:40.577Z,0.00
2019-05-28T01:47:40.599Z,0.00
2019-05-28T01:48:40.574Z,0.00
2019-05-28T01:49:40.574Z,0.00
2019-05-28T01:50:40.578Z,0.00
2019-05-28T01:51:40.568Z,0.00
2019-05-28T01:52:40.595Z,0.00
2019-05-28T01:53:40.567Z,0.00
2019-05-28T01:54:40.572Z,0.00
2019-05-28T01:55:40.567Z,0.00
2019-05-28T01:56:40.560Z,0.00
2019-05-28T01:57:40.591Z,0.00
2019-05-28T01:58:40.564Z,0.00
2019-05-28T01:59:40.560Z,0.00
2019-05-28T02:00:40.561Z,0.00
2019-05-28T02:01:40.565Z,0.00
2019-05-28T02:02:40.595Z,0.00
2019-05-28T02:03:40.564Z,0.00
2019-05-28T02:04:40.570Z,0.00
2019-05-28T02:05:40.566Z,0.00
2019-05-28T02:06:40.561Z,0.00
2019-05-28T02:07:40.554Z,0.00
2019-05-28T02:08:40.589Z,0.00
2019-05-28T02:09:40.565Z,0.00
2019-05-28T02:10:40.560Z,0.00
2019-05-28T02:11:40.565Z,0.00
2019-05-28T02:12:40.567Z,0.00
2019-05-28T02:13:40.587Z,0.00
2019-05-28T02:14:40.560Z,0.00
2019-05-28T02:15:40.560Z,0.00
2019-05-28T02:16:40.566Z,0.00
2019-05-28T02:17:40.554Z,0.00
2019-05-28T02:18:40.587Z,0.00
2019-05-28T02:19:40.555Z,0.00
2019-05-28T02:20:40.555Z,0.00
2019-05-28T02:21:40.548Z,0.00
2019-05-28T02:22:40.549Z,0.00
2019-05-28T02:23:40.578Z,0.00
2019-05-28T02:24:40.549Z,0.00
2019-05-28T02:25:40.546Z,0.00
2019-05-28T02:26:40.549Z,0.00
2019-05-28T02:27:40.547Z,0.00
2019-05-28T02:28:40.585Z,0.00
2019-05-28T02:29:40.546Z,0.00
2019-05-28T02:30:40.545Z,0.00
2019-05-28T02:31:40.543Z,0.00
2019-05-28T02:32:40.543Z,0.00
2019-05-28T02:33:40.569Z,0.00
2019-05-28T02:34:40.547Z,0.00
2019-05-28T02:35:40.543Z,0.00
2019-05-28T02:36:40.538Z,0.00
2019-05-28T02:37:40.544Z,0.00
2019-05-28T02:38:40.578Z,0.00
2019-05-28T02:39:40.535Z,0.00
2019-05-28T02:40:40.547Z,0.00
2019-05-28T02:41:40.547Z,0.00
2019-05-28T02:42:40.540Z,0.00
2019-05-28T02:43:40.568Z,0.00
2019-05-28T02:44:40.541Z,0.00
2019-05-28T02:45:40.545Z,0.00
2019-05-28T02:46:40.536Z,0.00
2019-05-28T02:47:40.539Z,0.00
2019-05-28T02:48:40.570Z,0.00
2019-05-28T02:49:40.533Z,0.00
2019-05-28T02:50:40.529Z,0.00
2019-05-28T02:51:40.535Z,0.00
2019-05-28T02:52:40.541Z,0.00
2019-05-28T02:53:40.559Z,0.00
2019-05-28T02:54:40.531Z,0.00
2019-05-28T02:55:40.531Z,0.00
2019-05-28T02:56:40.527Z,0.00
2019-05-28T02:57:40.535Z,0.00
2019-05-28T02:58:40.563Z,0.00
2019-05-28T02:59:40.523Z,0.00
2019-05-28T03:00:40.532Z,0.00
2019-05-28T03:01:44.407Z,0.00
2019-05-28T03:02:40.536Z,0.00
2019-05-28T03:03:40.562Z,0.00
2019-05-28T03:04:40.529Z,0.00
2019-05-28T03:05:40.525Z,0.00
2019-05-28T03:06:40.557Z,0.00
2019-05-28T03:07:40.524Z,0.00
2019-05-28T03:08:40.525Z,0.00
2019-05-28T03:09:40.525Z,0.00
2019-05-28T03:11:05.484Z,0.00
2019-05-28T03:11:40.550Z,0.00
2019-05-28T03:12:40.548Z,0.00
2019-05-28T03:13:40.527Z,0.00
2019-05-28T03:14:40.518Z,0.00
2019-05-28T03:15:40.517Z,0.00
2019-05-28T03:16:40.545Z,0.00
2019-05-28T03:17:40.519Z,0.00
2019-05-28T03:18:40.524Z,0.00
2019-05-28T03:19:40.516Z,0.00
2019-05-28T03:20:40.515Z,0.00
2019-05-28T03:21:40.559Z,0.00
2019-05-28T03:22:40.514Z,0.00
2019-05-28T03:23:40.515Z,0.00
2019-05-28T03:24:40.511Z,0.00
2019-05-28T03:25:40.513Z,0.00
2019-05-28T03:26:40.546Z,0.00
2019-05-28T03:27:40.519Z,0.00
2019-05-28T03:28:40.513Z,0.00
2019-05-28T03:29:40.536Z,0.00
2019-05-28T03:30:40.515Z,0.00
2019-05-28T03:31:40.517Z,0.00
2019-05-28T03:32:40.558Z,0.00
2019-05-28T03:33:40.530Z,0.00
2019-05-28T03:34:42.224Z,0.00
2019-05-28T03:35:40.529Z,0.00
2019-05-28T03:36:40.534Z,0.00
2019-05-28T03:37:40.566Z,0.00
2019-05-28T03:38:40.530Z,0.00
2019-05-28T03:39:40.536Z,0.00
2019-05-28T03:40:40.634Z,0.00
2019-05-28T03:41:40.530Z,0.00
2019-05-28T03:42:40.559Z,0.00
2019-05-28T03:43:40.532Z,0.00
2019-05-28T03:44:40.533Z,0.00
2019-05-28T03:45:40.534Z,0.00
2019-05-28T03:46:40.553Z,0.00
2019-05-28T03:47:40.555Z,0.00
2019-05-28T03:48:40.534Z,0.00
2019-05-28T03:49:40.553Z,0.00
2019-05-28T03:50:40.524Z,0.00
2019-05-28T03:51:40.526Z,0.00
2019-05-28T03:52:40.550Z,0.00
2019-05-28T03:53:40.523Z,0.00
2019-05-28T03:54:40.525Z,0.00
2019-05-28T03:55:40.523Z,0.00
2019-05-28T03:56:40.524Z,0.00
2019-05-28T03:57:40.545Z,0.00
2019-05-28T03:58:40.522Z,0.00
2019-05-28T03:59:40.514Z,0.00
2019-05-28T04:00:40.526Z,0.00
2019-05-28T04:01:40.488Z,0.00
2019-05-28T04:02:40.507Z,0.00
2019-05-28T04:03:40.488Z,0.00
2019-05-28T04:04:40.489Z,0.00
2019-05-28T04:05:40.487Z,0.00
2019-05-28T04:06:40.489Z,0.00
2019-05-28T04:07:40.528Z,0.00
2019-05-28T04:08:40.479Z,0.00
2019-05-28T04:09:40.480Z,0.00
2019-05-28T04:10:40.480Z,0.00
2019-05-28T04:11:44.869Z,0.00
2019-05-28T04:12:40.507Z,0.00
2019-05-28T04:13:40.476Z,0.00
2019-05-28T04:14:40.473Z,0.00
2019-05-28T04:15:40.473Z,0.00
2019-05-28T04:16:40.470Z,0.00
2019-05-28T04:17:40.501Z,0.00
2019-05-28T04:18:40.478Z,0.00
2019-05-28T04:19:40.474Z,0.00
2019-05-28T04:20:40.585Z,0.00
2019-05-28T04:21:40.465Z,0.00
2019-05-28T04:22:40.494Z,0.00
2019-05-28T04:23:41.755Z,0.00
2019-05-28T04:24:40.471Z,0.00
2019-05-28T04:25:40.468Z,0.00
2019-05-28T04:26:40.471Z,0.00
2019-05-28T04:27:40.496Z,0.00
2019-05-28T04:28:40.463Z,0.00
2019-05-28T04:29:40.466Z,0.00
2019-05-28T04:30:40.473Z,0.00
2019-05-28T04:31:40.512Z,0.00
2019-05-28T04:32:41.547Z,0.00
2019-05-28T04:33:40.463Z,0.00
2019-05-28T04:34:40.469Z,0.00
2019-05-28T04:35:40.460Z,0.00
2019-05-28T04:36:40.461Z,0.00
2019-05-28T04:37:40.491Z,0.00
2019-05-28T04:38:40.458Z,0.00
2019-05-28T04:39:40.462Z,0.00
2019-05-28T04:40:40.487Z,0.00
2019-05-28T04:41:40.468Z,0.00
2019-05-28T04:42:40.470Z,0.00
2019-05-28T04:43:40.483Z,0.00
2019-05-28T04:44:40.459Z,0.00
2019-05-28T04:45:40.458Z,0.00
2019-05-28T04:46:40.459Z,0.00
2019-05-28T04:47:40.458Z,0.00
2019-05-28T04:48:40.479Z,0.00
2019-05-28T04:49:40.456Z,0.00
2019-05-28T04:50:40.452Z,0.00
2019-05-28T04:51:40.453Z,0.00
2019-05-28T04:52:40.451Z,0.00
2019-05-28T04:53:40.484Z,0.00
2019-05-28T04:54:40.453Z,0.00
2019-05-28T04:55:40.456Z,0.00
2019-05-28T04:56:40.455Z,0.00
2019-05-28T04:57:40.449Z,0.00
2019-05-28T04:58:40.480Z,0.00
2019-05-28T04:59:40.452Z,0.00
2019-05-28T05:00:40.560Z,0.00
2019-05-28T05:01:40.445Z,0.00
2019-05-28T05:02:55.530Z,0.00
2019-05-28T05:03:40.474Z,0.00
2019-05-28T05:04:40.449Z,0.00
2019-05-28T05:05:40.446Z,0.00
2019-05-28T05:06:40.449Z,0.00
2019-05-28T05:07:40.445Z,0.00
2019-05-28T05:08:40.478Z,0.00
2019-05-28T05:09:40.446Z,0.00
2019-05-28T05:10:40.451Z,0.00
2019-05-28T05:11:40.442Z,0.00
2019-05-28T05:12:40.445Z,0.00
2019-05-28T05:13:40.471Z,0.00
2019-05-28T05:14:40.440Z,0.00
2019-05-28T05:15:40.470Z,0.00
2019-05-28T05:16:40.438Z,0.00
2019-05-28T05:17:40.436Z,0.00
2019-05-28T05:18:40.440Z,0.00
2019-05-28T05:19:40.465Z,0.00
2019-05-28T05:20:40.440Z,0.00
2019-05-28T05:21:40.446Z,0.00
2019-05-28T05:22:40.441Z,0.00
2019-05-28T05:23:40.462Z,0.00
2019-05-28T05:24:40.440Z,0.00
2019-05-28T05:25:40.438Z,0.00
2019-05-28T05:26:40.443Z,0.00
2019-05-28T05:27:40.450Z,0.00
2019-05-28T05:28:40.461Z,0.00
2019-05-28T05:29:40.433Z,0.00
2019-05-28T05:30:40.439Z,0.00
2019-05-28T05:31:40.464Z,0.00
2019-05-28T05:32:40.442Z,0.00
2019-05-28T05:33:40.434Z,0.00
2019-05-28T05:34:40.464Z,0.00
2019-05-28T05:35:40.438Z,0.00
2019-05-28T05:36:40.436Z,0.00
2019-05-28T05:37:40.440Z,0.00
2019-05-28T05:38:40.432Z,0.00
2019-05-28T05:39:40.530Z,0.00
2019-05-28T05:40:40.536Z,2.48
2019-05-28T05:41:40.469Z,9.27
2019-05-28T05:42:40.440Z,15.01
2019-05-28T05:43:40.453Z,15.77
2019-05-28T05:44:40.429Z,16.73
2019-05-28T05:45:40.468Z,15.20
2019-05-28T05:46:40.436Z,14.15
2019-05-28T05:47:40.434Z,14.34
2019-05-28T05:48:40.441Z,24.48
2019-05-28T05:49:40.465Z,5.83
2019-05-28T05:50:40.436Z,14.54
2019-05-28T05:51:40.445Z,14.44
2019-05-28T05:52:40.463Z,24.77
2019-05-28T05:53:40.457Z,9.47
2019-05-28T05:54:40.463Z,7.94
2019-05-28T05:55:40.443Z,15.49
2019-05-28T05:56:40.448Z,40.84
2019-05-28T05:57:40.438Z,33.28
2019-05-28T05:58:40.450Z,34.34
2019-05-28T05:59:40.476Z,28.90
2019-05-28T06:00:40.444Z,22.30
2019-05-28T06:01:40.445Z,24.50
2019-05-28T06:02:40.447Z,37.61
2019-05-28T06:03:41.891Z,50.72
2019-05-28T06:04:40.477Z,41.34
2019-05-28T06:05:40.457Z,60.38
2019-05-28T06:06:40.447Z,35.31
2019-05-28T06:07:40.456Z,60.86
2019-05-28T06:08:40.454Z,58.37
2019-05-28T06:09:40.485Z,55.31
2019-05-28T06:10:40.454Z,58.28
2019-05-28T06:11:40.453Z,63.99
2019-05-28T06:12:40.457Z,55.07
2019-05-28T06:13:40.462Z,64.85
2019-05-28T06:14:40.494Z,69.70
2019-05-28T06:15:40.461Z,60.26
2019-05-28T06:16:40.454Z,55.00
2019-05-28T06:17:40.462Z,60.55
2019-05-28T06:18:40.463Z,61.41
2019-05-28T06:19:40.498Z,55.51
2019-05-28T06:20:40.553Z,57.90
2019-05-28T06:21:40.471Z,63.10
2019-05-28T06:22:40.465Z,74.68
2019-05-28T06:23:40.753Z,64.05
2019-05-28T06:24:40.498Z,71.04
2019-05-28T06:25:40.473Z,83.49
2019-05-28T06:26:40.468Z,60.41
2019-05-28T06:27:40.472Z,87.56
2019-05-28T06:28:40.478Z,89.04
2019-05-28T06:29:40.502Z,77.75
2019-05-28T06:30:40.480Z,87.23
2019-05-28T06:31:40.479Z,72.77
2019-05-28T06:32:40.478Z,96.13
2019-05-28T06:33:55.767Z,88.66
2019-05-28T06:34:40.518Z,93.12
2019-05-28T06:35:40.489Z,71.97
2019-05-28T06:36:40.489Z,73.88
2019-05-28T06:37:40.489Z,77.99
2019-05-28T06:38:40.494Z,90.91
2019-05-28T06:39:40.527Z,63.48
2019-05-28T06:40:40.493Z,84.92
2019-05-28T06:41:40.527Z,83.54
2019-05-28T06:42:40.515Z,87.70
2019-05-28T06:43:40.506Z,88.18
2019-05-28T06:44:40.512Z,71.14
2019-05-28T06:45:40.538Z,95.56
2019-05-28T06:46:40.512Z,85.12
2019-05-28T06:47:45.205Z,88.51
2019-05-28T06:48:40.512Z,97.18
2019-05-28T06:49:40.513Z,90.58
2019-05-28T06:50:40.552Z,88.70
2019-05-28T06:51:40.516Z,86.88
2019-05-28T06:52:40.519Z,96.84
2019-05-28T06:53:40.520Z,98.52
2019-05-28T06:54:40.521Z,91.25
2019-05-28T06:55:40.552Z,91.25
2019-05-28T06:56:40.530Z,99.99
2019-05-28T06:57:40.526Z,90.43
2019-05-28T06:58:40.654Z,97.75
2019-05-28T06:59:40.538Z,99.99
2019-05-28T07:00:40.563Z,99.99
2019-05-28T07:01:40.558Z,95.36
2019-05-28T07:02:40.539Z,97.75
2019-05-28T07:03:40.552Z,97.66
2019-05-28T07:04:40.546Z,95.84
2019-05-28T07:05:40.575Z,98.38
2019-05-28T07:06:40.555Z,99.99
2019-05-28T07:07:40.552Z,99.99
2019-05-28T07:08:40.593Z,93.59
2019-05-28T07:09:40.560Z,99.99
2019-05-28T07:10:56.568Z,99.99
2019-05-28T07:11:40.563Z,99.99
2019-05-28T07:12:40.563Z,99.99
2019-05-28T07:13:40.571Z,99.99
2019-05-28T07:14:40.578Z,99.99
2019-05-28T07:15:40.609Z,99.99
2019-05-28T07:16:52.788Z,97.76
2019-05-28T07:17:40.582Z,99.99
2019-05-28T07:18:40.581Z,99.99
2019-05-28T07:19:40.587Z,92.68
2019-05-28T07:20:40.616Z,99.99
2019-05-28T07:21:40.600Z,99.99
2019-05-28T07:22:40.593Z,93.21
2019-05-28T07:23:40.593Z,96.08
2019-05-28T07:24:40.595Z,97.28
2019-05-28T07:25:40.634Z,99.99
2019-05-28T07:26:40.606Z,99.99
2019-05-28T07:27:40.638Z,99.99
2019-05-28T07:28:40.615Z,99.99
2019-05-28T07:29:40.670Z,99.99
2019-05-28T07:30:40.614Z,99.99
2019-05-28T07:31:40.651Z,99.99
2019-05-28T07:32:40.651Z,99.99
2019-05-28T07:33:40.624Z,99.73
2019-05-28T07:34:40.641Z,99.99
2019-05-28T07:35:45.622Z,99.99
2019-05-28T07:36:40.643Z,99.99
2019-05-28T07:37:40.663Z,99.99
2019-05-28T07:38:40.650Z,99.99
2019-05-28T07:39:40.642Z,99.99
2019-05-28T07:40:40.644Z,99.99
2019-05-28T07:41:40.658Z,99.99
2019-05-28T07:42:40.678Z,99.99
2019-05-28T07:43:40.656Z,99.99
2019-05-28T07:44:40.784Z,99.99
2019-05-28T07:45:40.660Z,99.99
2019-05-28T07:46:40.687Z,95.51
2019-05-28T07:47:40.697Z,99.99
2019-05-28T07:48:40.684Z,99.99
2019-05-28T07:49:40.680Z,99.99
2019-05-28T07:50:40.700Z,99.99
2019-05-28T07:51:40.690Z,99.99
2019-05-28T07:52:40.741Z,99.99
2019-05-28T07:53:40.888Z,99.99
2019-05-28T07:54:40.695Z,99.99
2019-05-28T07:55:40.699Z,99.99
2019-05-28T07:56:40.719Z,99.99
2019-05-28T07:57:40.743Z,99.99
2019-05-28T07:58:40.713Z,99.99
2019-05-28T07:59:40.718Z,99.99
2019-05-28T08:00:40.727Z,99.99
2019-05-28T08:01:40.731Z,99.99
2019-05-28T08:02:40.767Z,99.99
2019-05-28T08:03:40.729Z,99.99
2019-05-28T08:04:47.309Z,99.99
2019-05-28T08:05:40.751Z,99.99
2019-05-28T08:06:54.169Z,99.99
2019-05-28T08:07:40.783Z,99.99
2019-05-28T08:08:40.745Z,99.99
2019-05-28T08:09:40.759Z,99.99
2019-05-28T08:10:40.787Z,99.99
2019-05-28T08:11:40.771Z,99.99
2019-05-28T08:12:40.796Z,99.99
2019-05-28T08:13:41.544Z,99.99
2019-05-28T08:14:40.782Z,99.99
2019-05-28T08:15:40.782Z,99.99
2019-05-28T08:16:52.342Z,99.99
2019-05-28T08:17:40.816Z,99.99
2019-05-28T08:18:40.797Z,99.99
2019-05-28T08:19:40.797Z,99.99
2019-05-28T08:20:40.959Z,99.99
2019-05-28T08:21:40.811Z,99.99
2019-05-28T08:22:42.638Z,99.99
2019-05-28T08:23:40.815Z,99.99
2019-05-28T08:24:40.822Z,99.99
2019-05-28T08:25:47.433Z,99.99
2019-05-28T08:26:40.829Z,99.99
2019-05-28T08:27:40.865Z,99.99
2019-05-28T08:28:40.856Z,99.99
2019-05-28T08:29:40.844Z,99.99
2019-05-28T08:30:40.850Z,99.99
2019-05-28T08:31:40.857Z,99.99
2019-05-28T08:32:40.909Z,99.99
2019-05-28T08:33:40.864Z,99.99
2019-05-28T08:34:40.871Z,99.99
2019-05-28T08:35:40.880Z,99.99
2019-05-28T08:36:40.889Z,99.99
2019-05-28T08:37:40.906Z,99.99
2019-05-28T08:38:40.882Z,99.99
2019-05-28T08:39:40.890Z,99.99
2019-05-28T08:40:40.893Z,99.99
2019-05-28T08:41:40.899Z,99.99
2019-05-28T08:42:40.950Z,99.99
2019-05-28T08:43:40.934Z,99.99
2019-05-28T08:44:40.929Z,99.99
2019-05-28T08:45:42.797Z,99.99
2019-05-28T08:46:40.919Z,99.99
2019-05-28T08:47:40.920Z,99.99
2019-05-28T08:48:40.958Z,99.99
2019-05-28T08:49:40.932Z,99.99
2019-05-28T08:50:40.936Z,99.99
2019-05-28T08:51:40.944Z,99.99
2019-05-28T08:52:40.944Z,99.99
2019-05-28T08:53:41.343Z,99.99
2019-05-28T08:54:40.954Z,99.99
2019-05-28T08:55:40.960Z,99.99
2019-05-28T08:56:40.969Z,99.99
2019-05-28T08:57:40.978Z,99.99
2019-05-28T08:58:41.016Z,99.99
2019-05-28T08:59:40.975Z,99.99
2019-05-28T09:00:41.153Z,99.99
2019-05-28T09:01:40.992Z,99.99
2019-05-28T09:02:40.994Z,99.99
2019-05-28T09:03:41.026Z,99.99
2019-05-28T09:04:41.004Z,99.99
2019-05-28T09:05:41.004Z,99.99
2019-05-28T09:06:41.015Z,99.99
2019-05-28T09:07:41.032Z,99.99
2019-05-28T09:08:41.068Z,99.99
2019-05-28T09:09:41.026Z,99.99
2019-05-28T09:10:41.039Z,99.99
2019-05-28T09:11:41.031Z,99.99
2019-05-28T09:12:41.047Z,99.99
2019-05-28T09:13:41.089Z,99.99
2019-05-28T09:14:55.693Z,99.99
2019-05-28T09:15:41.049Z,99.99
2019-05-28T09:16:41.061Z,99.99
2019-05-28T09:17:41.076Z,99.99
2019-05-28T09:18:41.091Z,99.99
2019-05-28T09:19:41.097Z,99.99
2019-05-28T09:20:41.163Z,99.99
2019-05-28T09:21:41.087Z,99.99
2019-05-28T09:22:41.085Z,99.99
2019-05-28T09:23:41.090Z,99.99
2019-05-28T09:24:41.110Z,99.99
2019-05-28T09:25:41.089Z,99.99
2019-05-28T09:26:41.098Z,99.99
2019-05-28T09:27:41.091Z,99.99
2019-05-28T09:28:41.145Z,99.99
2019-05-28T09:29:41.130Z,99.99
2019-05-28T09:30:41.108Z,99.99
2019-05-28T09:31:41.108Z,99.99
2019-05-28T09:32:41.183Z,99.99
2019-05-28T09:33:41.141Z,99.99
2019-05-28T09:34:41.113Z,99.99
2019-05-28T09:35:44.469Z,99.99
2019-05-28T09:36:41.128Z,99.99
2019-05-28T09:37:41.130Z,99.99
2019-05-28T09:38:41.157Z,99.99
2019-05-28T09:39:41.130Z,99.99
2019-05-28T09:40:50.194Z,99.99
2019-05-28T09:41:41.140Z,99.99
2019-05-28T09:42:41.141Z,99.99
2019-05-28T09:43:41.179Z,99.99
2019-05-28T09:44:41.195Z,99.99
2019-05-28T09:45:41.157Z,99.99
2019-05-28T09:46:41.164Z,99.99
2019-05-28T09:47:41.162Z,99.99
2019-05-28T09:48:41.170Z,99.99
2019-05-28T09:49:41.195Z,99.99
2019-05-28T09:50:41.178Z,99.99
2019-05-28T09:51:41.195Z,99.99
2019-05-28T09:52:53.525Z,99.99
2019-05-28T09:53:41.188Z,99.99
2019-05-28T09:54:41.218Z,99.99
2019-05-28T09:55:41.245Z,99.99
2019-05-28T09:56:41.381Z,99.99
2019-05-28T09:57:47.314Z,99.99
2019-05-28T09:58:41.206Z,99.99
2019-05-28T09:59:42.148Z,99.99
2019-05-28T10:00:56.774Z,99.99
2019-05-28T10:01:41.248Z,99.99
2019-05-28T10:02:41.229Z,99.99
2019-05-28T10:03:41.225Z,99.99
2019-05-28T10:04:49.264Z,99.99
2019-05-28T10:05:54.914Z,99.99
2019-05-28T10:06:41.841Z,99.99
2019-05-28T10:07:41.260Z,99.99
2019-05-28T10:08:41.268Z,99.99
2019-05-28T10:09:41.297Z,99.99
2019-05-28T10:10:41.287Z,99.99
2019-05-28T10:11:41.281Z,99.99
2019-05-28T10:12:41.266Z,99.99
2019-05-28T10:13:41.909Z,99.99
2019-05-28T10:14:44.202Z,99.99
2019-05-28T10:15:41.321Z,99.99
2019-05-28T10:16:41.286Z,99.99
2019-05-28T10:17:41.318Z,99.99
2019-05-28T10:18:41.298Z,99.99
2019-05-28T10:19:41.297Z,99.99
2019-05-28T10:20:41.345Z,99.99
2019-05-28T10:21:41.310Z,99.99
2019-05-28T10:22:41.322Z,99.99
2019-05-28T10:23:41.343Z,99.99
2019-05-28T10:24:41.335Z,99.99
2019-05-28T10:25:41.398Z,99.99
2019-05-28T10:26:41.346Z,99.99
2019-05-28T10:27:59.419Z,99.99
2019-05-28T10:28:41.341Z,99.99
2019-05-28T10:29:41.343Z,99.99
2019-05-28T10:30:41.382Z,99.99
2019-05-28T10:31:41.358Z,99.99
2019-05-28T10:32:41.370Z,99.99
2019-05-28T10:33:41.372Z,99.99
2019-05-28T10:34:41.377Z,99.99
2019-05-28T10:35:41.408Z,99.99
2019-05-28T10:36:41.381Z,99.99
2019-05-28T10:37:41.392Z,99.99
2019-05-28T10:38:41.395Z,99.99
2019-05-28T10:39:41.402Z,99.99
2019-05-28T10:40:41.585Z,99.99
2019-05-28T10:41:41.412Z,99.99
2019-05-28T10:42:41.416Z,99.99
2019-05-28T10:43:41.425Z,99.99
2019-05-28T10:44:45.021Z,99.99
2019-05-28T10:45:41.593Z,99.99
2019-05-28T10:46:41.444Z,99.99
2019-05-28T10:47:41.452Z,99.99
2019-05-28T10:48:41.457Z,99.99
2019-05-28T10:49:41.477Z,99.99
2019-05-28T10:50:41.497Z,99.99
2019-05-28T10:51:41.483Z,99.99
2019-05-28T10:52:41.493Z,99.99
2019-05-28T10:53:41.489Z,99.99
2019-05-28T10:54:41.533Z,99.99
2019-05-28T10:55:41.540Z,99.99
2019-05-28T10:56:41.523Z,99.99
2019-05-28T10:57:41.564Z,99.99
2019-05-28T10:58:41.533Z,99.99
2019-05-28T10:59:41.563Z,99.99
2019-05-28T11:00:41.579Z,99.99
2019-05-28T11:01:41.561Z,99.99
2019-05-28T11:02:41.566Z,99.99
2019-05-28T11:03:41.566Z,99.99
2019-05-28T11:04:41.582Z,99.99
2019-05-28T11:05:41.607Z,99.99
2019-05-28T11:06:51.309Z,99.99
2019-05-28T11:07:41.596Z,99.99
2019-05-28T11:08:41.619Z,99.99
2019-05-28T11:09:41.664Z,99.99
2019-05-28T11:10:41.621Z,99.99
2019-05-28T11:11:41.627Z,99.99
2019-05-28T11:12:41.639Z,99.99
2019-05-28T11:13:52.634Z,99.99
2019-05-28T11:14:41.680Z,99.99
2019-05-28T11:15:41.690Z,99.99
2019-05-28T11:16:41.670Z,99.99
2019-05-28T11:17:41.695Z,99.99
2019-05-28T11:18:41.694Z,99.99
2019-05-28T11:19:41.690Z,99.99
2019-05-28T11:20:42.176Z,99.99
2019-05-28T11:21:41.710Z,99.99
2019-05-28T11:22:41.716Z,99.99
2019-05-28T11:23:41.727Z,99.99
2019-05-28T11:24:41.729Z,99.99
2019-05-28T11:25:41.764Z,99.99
2019-05-28T11:26:41.746Z,99.99
2019-05-28T11:27:41.750Z,99.99
2019-05-28T11:28:41.757Z,99.99
2019-05-28T11:29:41.781Z,99.99
2019-05-28T11:30:42.052Z,99.99
2019-05-28T11:31:41.776Z,99.99
2019-05-28T11:32:41.784Z,99.99
2019-05-28T11:33:41.797Z,99.99
2019-05-28T11:34:41.798Z,99.99
2019-05-28T11:35:41.836Z,99.99
2019-05-28T11:36:41.810Z,99.99
2019-05-28T11:37:41.816Z,99.99
2019-05-28T11:38:41.823Z,99.99
2019-05-28T11:39:41.830Z,99.99
2019-05-28T11:40:41.862Z,99.99
2019-05-28T11:41:43.182Z,99.99
2019-05-28T11:42:41.857Z,99.99
2019-05-28T11:43:41.858Z,99.99
2019-05-28T11:44:41.859Z,99.99
2019-05-28T11:45:41.890Z,99.99
2019-05-28T11:46:41.879Z,99.99
2019-05-28T11:47:41.881Z,99.99
2019-05-28T11:48:41.904Z,99.99
2019-05-28T11:49:41.891Z,99.99
2019-05-28T11:50:41.924Z,99.99
2019-05-28T11:51:41.903Z,99.99
2019-05-28T11:52:41.938Z,99.99
2019-05-28T11:53:41.912Z,99.99
2019-05-28T11:54:41.925Z,99.99
2019-05-28T11:55:42.130Z,99.99
2019-05-28T11:56:41.929Z,99.99
2019-05-28T11:57:41.949Z,99.99
2019-05-28T11:58:41.952Z,99.99
2019-05-28T11:59:41.959Z,99.99
2019-05-28T12:00:41.983Z,99.99
2019-05-28T12:01:41.963Z,99.99
2019-05-28T12:02:42.005Z,99.99
2019-05-28T12:03:41.979Z,99.99
2019-05-28T12:04:41.987Z,99.99
2019-05-28T12:05:42.018Z,99.99
2019-05-28T12:06:41.999Z,99.99
2019-05-28T12:07:42.014Z,99.99
2019-05-28T12:08:42.012Z,99.99
2019-05-28T12:09:42.015Z,99.99
2019-05-28T12:10:42.051Z,99.98
2019-05-28T12:11:42.032Z,99.99
2019-05-28T12:12:42.049Z,99.99
2019-05-28T12:13:42.047Z,99.99
2019-05-28T12:14:42.052Z,99.99
2019-05-28T12:15:42.094Z,99.99
2019-05-28T12:16:42.063Z,99.99
2019-05-28T12:17:45.138Z,99.99
2019-05-28T12:18:42.081Z,99.99
2019-05-28T12:19:42.091Z,99.99
2019-05-28T12:20:42.118Z,99.99
2019-05-28T12:21:42.133Z,99.99
2019-05-28T12:22:42.909Z,99.99
2019-05-28T12:23:42.127Z,99.99
2019-05-28T12:24:42.119Z,99.99
2019-05-28T12:25:42.133Z,99.99
2019-05-28T12:26:42.290Z,99.99
2019-05-28T12:27:42.135Z,99.64
2019-05-28T12:28:42.140Z,99.21
2019-05-28T12:29:51.511Z,99.99
2019-05-28T12:30:43.039Z,99.99
2019-05-28T12:31:42.197Z,99.99
2019-05-28T12:32:42.198Z,99.99
2019-05-28T12:33:42.187Z,99.99
2019-05-28T12:34:42.196Z,98.96
2019-05-28T12:35:43.044Z,99.99
2019-05-28T12:36:42.208Z,97.67
2019-05-28T12:37:48.552Z,98.63
2019-05-28T12:38:42.364Z,98.24
2019-05-28T12:39:42.218Z,99.78
2019-05-28T12:40:47.725Z,98.58
2019-05-28T12:41:42.264Z,99.16
2019-05-28T12:42:42.244Z,98.29
2019-05-28T12:43:42.247Z,97.91
2019-05-28T12:44:42.868Z,99.50
2019-05-28T12:45:42.263Z,98.82
2019-05-28T12:46:42.294Z,99.99
2019-05-28T12:47:42.283Z,99.79
2019-05-28T12:48:42.278Z,96.70
2019-05-28T12:49:42.295Z,95.45
2019-05-28T12:50:42.460Z,96.42
2019-05-28T12:51:42.331Z,96.03
2019-05-28T12:52:46.524Z,96.61
2019-05-28T12:53:50.337Z,93.87
2019-05-28T12:54:42.314Z,95.07
2019-05-28T12:55:42.330Z,96.03
2019-05-28T12:56:42.374Z,99.64
2019-05-28T12:57:42.341Z,96.46
2019-05-28T12:58:43.609Z,97.52
2019-05-28T12:59:42.356Z,96.32
2019-05-28T13:00:42.371Z,96.46
2019-05-28T13:01:42.415Z,94.10
2019-05-28T13:02:42.429Z,98.49
2019-05-28T13:03:42.609Z,99.68